createdAt,value
2017-04-06T19:03:53.908Z,1020.74
2017-04-06T19:04:53.871Z,1020.69
2017-04-06T19:05:53.845Z,1020.74
2017-04-06T19:06:53.813Z,1020.74
2017-04-06T19:07:53.783Z,1020.74
2017-04-06T19:08:53.760Z,1020.72
2017-04-06T19:09:53.733Z,1020.71
2017-04-06T19:10:53.709Z,1020.7
2017-04-06T19:11:53.682Z,1020.76
2017-04-06T19:12:53.661Z,1020.73
2017-04-06T19:13:53.630Z,1020.73
2017-04-06T19:14:53.609Z,1020.73
2017-04-06T19:15:53.589Z,1020.74
2017-04-06T19:16:53.610Z,1020.73
2017-04-06T19:17:54.138Z,1020.75
2017-04-06T19:18:53.512Z,1020.82
2017-04-06T19:19:53.492Z,1020.76
2017-04-06T19:20:53.471Z,1020.77
2017-04-06T19:21:53.445Z,1020.82
2017-04-06T19:22:53.421Z,1020.82
2017-04-06T19:23:53.398Z,1020.88
2017-04-06T19:24:53.376Z,1020.82
2017-04-06T19:25:53.352Z,1020.85
2017-04-06T19:26:53.329Z,1020.85
2017-04-06T19:27:53.358Z,1020.83
2017-04-06T19:28:53.285Z,1020.85
2017-04-06T19:29:53.263Z,1020.84
2017-04-06T19:30:53.242Z,1020.8
2017-04-06T19:31:53.216Z,1020.84
2017-04-06T19:32:53.197Z,1020.81
2017-04-06T19:33:53.172Z,1020.86
2017-04-06T19:34:53.155Z,1020.86
2017-04-06T19:35:53.127Z,1020.82
2017-04-06T19:36:53.119Z,1020.78
2017-04-06T19:37:53.083Z,1020.8
2017-04-06T19:38:53.059Z,1020.79
2017-04-06T19:39:53.038Z,1020.79
2017-04-06T19:40:53.019Z,1020.84
2017-04-06T19:41:52.993Z,1020.8
2017-04-06T19:42:52.967Z,1020.83
2017-04-06T19:43:52.948Z,1020.78
2017-04-06T19:44:52.922Z,1020.79
2017-04-06T19:45:52.905Z,1020.79
2017-04-06T19:46:52.882Z,1020.81
2017-04-06T19:47:52.859Z,1020.81
2017-04-06T19:48:52.834Z,1020.8
2017-04-06T19:49:52.817Z,1020.81
2017-04-06T19:50:52.794Z,1020.81
2017-04-06T19:51:52.767Z,1020.82
2017-04-06T19:52:52.751Z,1020.79
2017-04-06T19:53:52.723Z,1020.83
2017-04-06T19:54:52.702Z,1020.79
2017-04-06T19:55:52.678Z,1020.79
2017-04-06T19:56:52.658Z,1020.76
2017-04-06T19:57:52.634Z,1020.81
2017-04-06T19:58:52.649Z,1020.81
2017-04-06T19:59:52.591Z,1020.79
2017-04-06T20:00:52.563Z,1020.8
2017-04-06T20:01:52.543Z,1020.75
2017-04-06T20:02:52.522Z,1020.83
2017-04-06T20:03:52.549Z,1020.81
2017-04-06T20:04:52.480Z,1020.8
2017-04-06T20:05:52.454Z,1020.85
2017-04-06T20:06:52.431Z,1020.86
2017-04-06T20:07:52.412Z,1020.84
2017-04-06T20:08:52.389Z,1020.85
2017-04-06T20:09:52.364Z,1020.88
2017-04-06T20:10:52.342Z,1020.84
2017-04-06T20:11:52.328Z,1020.81
2017-04-06T20:12:52.296Z,1020.86
2017-04-06T20:13:52.277Z,1020.82
2017-04-06T20:14:52.253Z,1020.82
2017-04-06T20:15:52.232Z,1020.84
2017-04-06T20:16:52.210Z,1020.81
2017-04-06T20:17:52.188Z,1020.87
2017-04-06T20:18:52.167Z,1020.86
2017-04-06T20:19:52.139Z,1020.92
2017-04-06T20:20:52.121Z,1020.88
2017-04-06T20:21:52.097Z,1020.87
2017-04-06T20:22:52.077Z,1020.87
2017-04-06T20:23:52.053Z,1020.88
2017-04-06T20:24:52.035Z,1020.86
2017-04-06T20:25:52.006Z,1020.86
2017-04-06T20:26:51.982Z,1020.91
2017-04-06T20:27:53.162Z,1020.93
2017-04-06T20:28:51.939Z,1020.9
2017-04-06T20:29:51.921Z,1020.87
2017-04-06T20:30:51.896Z,1020.87
2017-04-06T20:31:51.870Z,1020.9
2017-04-06T20:32:51.848Z,1020.87
2017-04-06T20:33:51.828Z,1020.86
2017-04-06T20:34:51.803Z,1020.88
2017-04-06T20:35:51.780Z,1020.9
2017-04-06T20:36:51.761Z,1020.91
2017-04-06T20:37:51.736Z,1020.9
2017-04-06T20:38:51.716Z,1020.94
2017-04-06T20:39:51.695Z,1020.92
2017-04-06T20:40:51.673Z,1020.86
2017-04-06T20:41:51.648Z,1020.86
2017-04-06T20:42:51.623Z,1020.86
2017-04-06T20:43:51.602Z,1020.89
2017-04-06T20:44:51.587Z,1020.91
2017-04-06T20:45:51.565Z,1020.92
2017-04-06T20:46:51.535Z,1020.92
2017-04-06T20:47:51.513Z,1020.91
2017-04-06T20:48:51.489Z,1020.98
2017-04-06T20:49:51.466Z,1020.9
2017-04-06T20:50:51.445Z,1020.97
2017-04-06T20:51:51.433Z,1020.94
2017-04-06T20:52:51.400Z,1020.93
2017-04-06T20:53:51.384Z,1020.97
2017-04-06T20:54:51.357Z,1021.03
2017-04-06T20:55:51.333Z,1021.06
2017-04-06T20:56:51.317Z,1021.03
2017-04-06T20:57:51.289Z,1021.11
2017-04-06T20:58:51.264Z,1021.05
2017-04-06T20:59:51.239Z,1021.04
2017-04-06T21:00:51.221Z,1021.02
2017-04-06T21:01:51.200Z,1021.04
2017-04-06T21:02:51.175Z,1020.99
2017-04-06T21:03:51.151Z,1020.97
2017-04-06T21:04:51.131Z,1021.02
2017-04-06T21:05:51.105Z,1020.95
2017-04-06T21:06:51.089Z,1021.01
2017-04-06T21:07:51.062Z,1021.01
2017-04-06T21:08:51.038Z,1021.06
2017-04-06T21:09:51.019Z,1021.08
2017-04-06T21:10:50.994Z,1021.07
2017-04-06T21:11:50.973Z,1021.08
2017-04-06T21:12:50.949Z,1021.06
2017-04-06T21:13:50.927Z,1021.06
2017-04-06T21:14:50.905Z,1021.08
2017-04-06T21:15:50.884Z,1021.03
2017-04-06T21:16:50.858Z,1021.02
2017-04-06T21:17:50.835Z,1021.04
2017-04-06T21:18:50.810Z,1020.99
2017-04-06T21:19:50.788Z,1021.02
2017-04-06T21:20:50.767Z,1021
2017-04-06T21:21:50.745Z,1021.02
2017-04-06T21:22:50.722Z,1021.02
2017-04-06T21:23:50.698Z,1021.04
2017-04-06T21:24:50.680Z,1021.08
2017-04-06T21:25:50.652Z,1021.06
2017-04-06T21:26:50.630Z,1021.03
2017-04-06T21:27:50.609Z,1021.05
2017-04-06T21:28:50.585Z,1021.03
2017-04-06T21:29:50.565Z,1021.02
2017-04-06T21:30:50.539Z,1021.08
2017-04-06T21:31:50.519Z,1021.03
2017-04-06T21:32:50.551Z,1021.05
2017-04-06T21:33:50.471Z,1021.03
2017-04-06T21:34:50.450Z,1021.02
2017-04-06T21:35:50.427Z,1021
2017-04-06T21:36:50.405Z,1021
2017-04-06T21:37:50.379Z,1020.97
2017-04-06T21:38:50.356Z,1020.97
2017-04-06T21:39:50.340Z,1021
2017-04-06T21:40:50.312Z,1020.98
2017-04-06T21:41:50.290Z,1021
2017-04-06T21:42:50.265Z,1020.99
2017-04-06T21:43:50.243Z,1020.93
2017-04-06T21:44:50.226Z,1020.94
2017-04-06T21:45:50.199Z,1020.93
2017-04-06T21:46:50.175Z,1020.93
2017-04-06T21:47:50.154Z,1020.92
2017-04-06T21:48:50.128Z,1020.93
2017-04-06T21:49:50.108Z,1020.89
2017-04-06T21:50:50.090Z,1020.93
2017-04-06T21:51:50.058Z,1020.89
2017-04-06T21:52:50.039Z,1020.92
2017-04-06T21:53:50.013Z,1020.94
2017-04-06T21:54:49.990Z,1020.95
2017-04-06T21:55:49.970Z,1020.9
2017-04-06T21:56:49.947Z,1020.94
2017-04-06T21:57:49.977Z,1020.87
2017-04-06T21:58:49.901Z,1020.92
2017-04-06T21:59:49.876Z,1020.88
2017-04-06T22:00:49.852Z,1020.9
2017-04-06T22:01:49.831Z,1020.92
2017-04-06T22:02:49.804Z,1020.87
2017-04-06T22:03:49.785Z,1020.9
2017-04-06T22:04:49.764Z,1020.91
2017-04-06T22:05:49.736Z,1020.87
2017-04-06T22:06:49.709Z,1020.89
2017-04-06T22:07:49.690Z,1020.9
2017-04-06T22:08:49.668Z,1020.91
2017-04-06T22:09:49.643Z,1020.87
2017-04-06T22:10:51.083Z,1020.87
2017-04-06T22:11:49.599Z,1020.86
2017-04-06T22:12:49.575Z,1020.82
2017-04-06T22:13:49.552Z,1020.85
2017-04-06T22:14:49.527Z,1020.83
2017-04-06T22:15:49.506Z,1020.82
2017-04-06T22:16:49.488Z,1020.84
2017-04-06T22:17:49.459Z,1020.85
2017-04-06T22:18:49.437Z,1020.87
2017-04-06T22:19:49.412Z,1020.81
2017-04-06T22:20:49.390Z,1020.8
2017-04-06T22:21:49.621Z,1020.77
2017-04-06T22:22:49.343Z,1020.77
2017-04-06T22:23:49.320Z,1020.77
2017-04-06T22:24:49.296Z,1020.74
2017-04-06T22:25:49.270Z,1020.74
2017-04-06T22:26:49.253Z,1020.71
2017-04-06T22:27:49.225Z,1020.69
2017-04-06T22:28:49.205Z,1020.65
2017-04-06T22:29:49.181Z,1020.65
2017-04-06T22:30:49.158Z,1020.66
2017-04-06T22:31:49.136Z,1020.62
2017-04-06T22:32:49.110Z,1020.65
2017-04-06T22:33:49.089Z,1020.62
2017-04-06T22:34:49.062Z,1020.57
2017-04-06T22:35:49.042Z,1020.57
2017-04-06T22:36:49.016Z,1020.59
2017-04-06T22:37:48.993Z,1020.56
2017-04-06T22:38:48.967Z,1020.53
2017-04-06T22:39:48.950Z,1020.56
2017-04-06T22:40:48.920Z,1020.49
2017-04-06T22:41:48.900Z,1020.57
2017-04-06T22:42:48.874Z,1020.47
2017-04-06T22:43:48.850Z,1020.54
2017-04-06T22:44:48.832Z,1020.52
2017-04-06T22:45:48.807Z,1020.47
2017-04-06T22:46:48.783Z,1020.47
2017-04-06T22:47:48.765Z,1020.48
2017-04-06T22:48:48.738Z,1020.44
2017-04-06T22:49:48.713Z,1020.45
2017-04-06T22:50:48.687Z,1020.47
2017-04-06T22:51:48.664Z,1020.5
2017-04-06T22:52:48.645Z,1020.44
2017-04-06T22:53:48.619Z,1020.48
2017-04-06T22:54:48.595Z,1020.52
2017-04-06T22:55:48.573Z,1020.49
2017-04-06T22:56:48.546Z,1020.42
2017-04-06T22:57:48.528Z,1020.42
2017-04-06T22:58:48.501Z,1020.4
2017-04-06T22:59:48.480Z,1020.43
2017-04-06T23:00:48.451Z,1020.39
2017-04-06T23:01:48.428Z,1020.43
2017-04-06T23:02:48.404Z,1020.39
2017-04-06T23:03:48.384Z,1020.39
2017-04-06T23:04:48.358Z,1020.42
2017-04-06T23:05:48.335Z,1020.39
2017-04-06T23:06:48.311Z,1020.34
2017-04-06T23:07:48.287Z,1020.36
2017-04-06T23:08:48.270Z,1020.31
2017-04-06T23:09:48.239Z,1020.35
2017-04-06T23:10:48.217Z,1020.3
2017-04-06T23:11:48.189Z,1020.24
2017-04-06T23:12:48.173Z,1020.33
2017-04-06T23:13:48.145Z,1020.29
2017-04-06T23:14:48.123Z,1020.34
2017-04-06T23:15:48.096Z,1020.29
2017-04-06T23:16:48.073Z,1020.29
2017-04-06T23:17:48.050Z,1020.3
2017-04-06T23:18:48.026Z,1020.26
2017-04-06T23:19:48.005Z,1020.25
2017-04-06T23:20:47.979Z,1020.26
2017-04-06T23:21:47.954Z,1020.2
2017-04-06T23:22:47.929Z,1020.19
2017-04-06T23:23:47.910Z,1020.19
2017-04-06T23:24:47.884Z,1020.14
2017-04-06T23:25:47.860Z,1020.19
2017-04-06T23:26:47.838Z,1020.2
2017-04-06T23:27:47.811Z,1020.17
2017-04-06T23:28:47.789Z,1020.14
2017-04-06T23:29:47.765Z,1020.14
2017-04-06T23:30:48.293Z,1020.13
2017-04-06T23:31:47.717Z,1020.14
2017-04-06T23:32:47.696Z,1020.07
2017-04-06T23:33:47.673Z,1020.09
2017-04-06T23:34:47.645Z,1020.09
2017-04-06T23:35:47.622Z,1020.09
2017-04-06T23:36:47.599Z,1020.04
2017-04-06T23:37:47.576Z,1020.04
2017-04-06T23:38:47.551Z,1020.02
2017-04-06T23:39:47.528Z,1020.03
2017-04-06T23:40:47.503Z,1019.99
2017-04-06T23:41:47.480Z,1019.96
2017-04-06T23:42:47.455Z,1019.95
2017-04-06T23:43:47.433Z,1019.95
2017-04-06T23:44:47.407Z,1019.92
2017-04-06T23:45:47.387Z,1019.91
2017-04-06T23:46:47.362Z,1019.93
2017-04-06T23:47:47.336Z,1019.95
2017-04-06T23:48:47.321Z,1019.93
2017-04-06T23:49:47.290Z,1019.9
2017-04-06T23:50:47.267Z,1019.9
2017-04-06T23:51:47.262Z,1019.88
2017-04-06T23:52:47.220Z,1019.88
2017-04-06T23:53:47.197Z,1019.84
2017-04-06T23:54:47.170Z,1019.81
2017-04-06T23:55:47.153Z,1019.8
2017-04-06T23:56:47.124Z,1019.81
2017-04-06T23:57:47.101Z,1019.85
2017-04-06T23:58:47.077Z,1019.85
2017-04-06T23:59:47.054Z,1019.8
